createdAt,value
2024-01-14T00:01:28.659Z,101714.59
2024-01-14T00:03:38.220Z,101711.97
2024-01-14T00:05:43.246Z,101707.66
2024-01-14T00:07:48.366Z,101692.06
2024-01-14T00:09:53.368Z,101698.97
2024-01-14T00:11:58.281Z,101693.78
2024-01-14T00:14:03.299Z,101688.56
2024-01-14T00:16:08.719Z,101695.50
2024-01-14T00:18:13.882Z,101692.88
2024-01-14T00:20:24.493Z,101691.13
2024-01-14T00:22:29.564Z,101687.66
2024-01-14T00:24:31.889Z,101685.06
2024-01-14T00:26:36.784Z,101685.06
2024-01-14T00:28:41.665Z,101698.09
2024-01-14T00:30:46.783Z,101693.75
2024-01-14T00:32:51.964Z,101697.19
2024-01-14T00:34:56.955Z,101693.72
2024-01-14T00:37:04.664Z,101683.34
2024-01-14T00:39:10.209Z,101678.16
2024-01-14T00:41:16.271Z,101674.69
2024-01-14T00:43:21.291Z,101675.56
2024-01-14T00:45:26.249Z,101662.56
2024-01-14T00:47:31.978Z,101661.72
2024-01-14T00:49:37.167Z,101655.63
2024-01-14T00:51:42.349Z,101658.28
2024-01-14T00:53:49.833Z,101653.06
2024-01-14T00:55:55.473Z,101647.88
2024-01-14T00:58:00.377Z,101646.97
2024-01-14T01:00:05.460Z,101642.66
2024-01-14T01:02:11.935Z,101642.66
2024-01-14T01:04:16.948Z,101635.72
2024-01-14T01:06:21.970Z,101634.88
2024-01-14T01:08:27.185Z,101633.13
2024-01-14T01:10:36.046Z,101637.47
2024-01-14T01:12:41.393Z,101629.66
2024-01-14T01:14:49.140Z,101633.16
2024-01-14T01:16:54.147Z,101632.28
2024-01-14T01:18:56.617Z,101625.34
2024-01-14T01:21:02.516Z,101617.53
2024-01-14T01:23:07.789Z,101614.06
2024-01-14T01:25:11.866Z,101611.44
2024-01-14T01:27:19.494Z,101603.66
2024-01-14T01:29:24.415Z,101607.97
2024-01-14T01:31:34.758Z,101600.19
2024-01-14T01:33:44.252Z,101603.63
2024-01-14T01:35:49.340Z,101599.31
2024-01-14T01:37:54.261Z,101601.06
2024-01-14T01:39:57.541Z,101595.00
2024-01-14T01:42:02.612Z,101588.91
2024-01-14T01:44:10.984Z,101588.91
2024-01-14T01:46:16.240Z,101591.56
2024-01-14T01:48:23.251Z,101592.41
2024-01-14T01:50:29.262Z,101589.81
2024-01-14T01:52:32.983Z,101595.88
2024-01-14T01:54:39.481Z,101590.69
2024-01-14T01:56:42.734Z,101592.38
2024-01-14T01:58:47.958Z,101584.56
2024-01-14T02:00:56.159Z,101586.28
2024-01-14T02:03:01.205Z,101575.88
2024-01-14T02:05:06.432Z,101571.56
2024-01-14T02:07:11.560Z,101568.94
2024-01-14T02:09:16.994Z,101564.63
2024-01-14T02:11:22.135Z,101571.53
2024-01-14T02:13:27.072Z,101582.75
2024-01-14T02:15:32.159Z,101577.56
2024-01-14T02:17:37.881Z,101582.78
2024-01-14T02:19:43.048Z,101575.00
2024-01-14T02:21:50.349Z,101570.69
2024-01-14T02:24:05.456Z,101575.03
2024-01-14T02:26:13.171Z,101569.81
2024-01-14T02:28:21.273Z,101563.78
2024-01-14T02:30:27.675Z,101565.50
2024-01-14T02:32:35.373Z,101561.19
2024-01-14T02:34:40.855Z,101554.28
2024-01-14T02:36:46.177Z,101558.59
2024-01-14T02:38:51.090Z,101562.94
2024-01-14T02:40:55.932Z,101556.03
2024-01-14T02:43:03.402Z,101556.88
2024-01-14T02:45:09.302Z,101554.28
2024-01-14T02:47:14.424Z,101541.31
2024-01-14T02:49:19.747Z,101539.56
2024-01-14T02:51:25.212Z,101546.50
2024-01-14T02:53:30.033Z,101542.16
2024-01-14T02:55:34.909Z,101536.97
2024-01-14T02:57:40.703Z,101530.03
2024-01-14T02:59:48.261Z,101528.31
2024-01-14T03:01:53.149Z,101515.34
2024-01-14T03:03:58.113Z,101520.53
2024-01-14T03:06:04.466Z,101517.91
2024-01-14T03:08:10.497Z,101517.06
2024-01-14T03:10:18.551Z,101515.31
2024-01-14T03:12:23.542Z,101510.09
2024-01-14T03:14:28.477Z,101510.09
2024-01-14T03:16:36.314Z,101505.78
2024-01-14T03:18:41.313Z,101505.81
2024-01-14T03:20:46.321Z,101502.31
2024-01-14T03:22:51.247Z,101513.59
2024-01-14T03:24:56.050Z,101509.25
2024-01-14T03:27:01.142Z,101505.78
2024-01-14T03:29:06.096Z,101507.50
2024-01-14T03:31:09.219Z,101494.50
2024-01-14T03:33:16.924Z,101493.63
2024-01-14T03:35:22.031Z,101490.16
2024-01-14T03:37:26.984Z,101492.75
2024-01-14T03:39:32.106Z,101485.84
2024-01-14T03:41:37.680Z,101473.72
2024-01-14T03:43:45.022Z,101478.03
2024-01-14T03:45:49.967Z,101483.19
2024-01-14T03:47:57.943Z,101474.56
2024-01-14T03:50:06.240Z,101470.25
2024-01-14T03:52:11.670Z,101471.09
2024-01-14T03:54:16.696Z,101464.19
2024-01-14T03:56:21.647Z,101465.91
2024-01-14T03:58:23.896Z,101462.47
2024-01-14T04:00:28.889Z,101450.34
2024-01-14T04:02:31.379Z,101461.56
2024-01-14T04:04:36.351Z,101461.56
2024-01-14T04:06:43.972Z,101452.03
2024-01-14T04:08:48.983Z,101457.25
2024-01-14T04:10:53.884Z,101457.22
2024-01-14T04:12:58.772Z,101453.78
2024-01-14T04:15:03.829Z,101452.06
2024-01-14T04:17:06.079Z,101444.28
2024-01-14T04:19:11.757Z,101447.75
2024-01-14T04:21:24.811Z,101437.34
2024-01-14T04:23:32.098Z,101439.97
2024-01-14T04:25:37.397Z,101429.56
2024-01-14T04:27:43.029Z,101426.97
2024-01-14T04:29:48.103Z,101428.72
2024-01-14T04:31:52.893Z,101426.97
2024-01-14T04:33:58.302Z,101427.00
2024-01-14T04:36:03.521Z,101422.66
2024-01-14T04:38:08.742Z,101417.47
2024-01-14T04:40:16.449Z,101423.53
2024-01-14T04:42:21.556Z,101420.09
2024-01-14T04:44:23.920Z,101411.44
2024-01-14T04:46:28.838Z,101411.44
2024-01-14T04:48:33.998Z,101413.16
2024-01-14T04:50:44.314Z,101410.56
2024-01-14T04:52:49.266Z,101409.72
2024-01-14T04:54:54.140Z,101407.13
2024-01-14T04:56:59.589Z,101409.69
2024-01-14T04:59:04.468Z,101396.72
2024-01-14T05:01:09.500Z,101401.06
2024-01-14T05:03:12.034Z,101394.13
2024-01-14T05:05:18.014Z,101395.03
2024-01-14T05:07:23.086Z,101390.69
2024-01-14T05:09:25.628Z,101396.75
2024-01-14T05:11:30.766Z,101385.50
2024-01-14T05:13:38.340Z,101389.84
2024-01-14T05:15:43.394Z,101384.63
2024-01-14T05:17:48.364Z,101383.75
2024-01-14T05:19:53.300Z,101386.38
2024-01-14T05:21:55.967Z,101386.34
2024-01-14T05:24:01.076Z,101385.47
2024-01-14T05:26:08.026Z,101375.97
2024-01-14T05:28:18.915Z,101380.31
2024-01-14T05:30:26.671Z,101375.97
2024-01-14T05:32:31.770Z,101366.47
2024-01-14T05:34:36.688Z,101364.75
2024-01-14T05:36:41.788Z,101368.19
2024-01-14T05:38:44.550Z,101365.59
2024-01-14T05:40:49.970Z,101363.88
2024-01-14T05:42:55.156Z,101363.00
2024-01-14T05:44:57.456Z,101358.69
2024-01-14T05:47:05.073Z,101353.50
2024-01-14T05:49:12.169Z,101350.06
2024-01-14T05:51:17.481Z,101344.88
2024-01-14T05:53:23.143Z,101345.72
2024-01-14T05:55:28.169Z,101345.72
2024-01-14T05:57:34.308Z,101343.13
2024-01-14T05:59:39.284Z,101347.47
2024-01-14T06:01:41.857Z,101340.53
2024-01-14T06:03:49.661Z,101340.53
2024-01-14T06:05:54.602Z,101333.63
2024-01-14T06:07:59.743Z,101331.88
2024-01-14T06:10:05.072Z,101329.28
2024-01-14T06:12:10.871Z,101327.56
2024-01-14T06:14:16.554Z,101324.09
2024-01-14T06:16:21.625Z,101326.69
2024-01-14T06:18:26.720Z,101324.09
2024-01-14T06:20:34.327Z,101324.97
2024-01-14T06:22:39.313Z,101322.38
2024-01-14T06:24:44.484Z,101316.31
2024-01-14T06:26:47.330Z,101318.91
2024-01-14T06:28:51.870Z,101311.97
2024-01-14T06:30:54.403Z,101305.94
2024-01-14T06:32:59.642Z,101304.22
2024-01-14T06:35:02.031Z,101305.06
2024-01-14T06:37:09.643Z,101297.25
2024-01-14T06:39:14.672Z,101302.44
2024-01-14T06:41:25.048Z,101291.22
2024-01-14T06:43:29.954Z,101292.06
2024-01-14T06:45:34.948Z,101288.63
2024-01-14T06:47:39.887Z,101293.81
2024-01-14T06:49:46.337Z,101290.34
2024-01-14T06:51:53.993Z,101287.75
2024-01-14T06:54:01.472Z,101286.88
2024-01-14T06:56:07.644Z,101286.88
2024-01-14T06:58:14.503Z,101284.28
2024-01-14T07:00:19.937Z,101286.03
2024-01-14T07:02:24.885Z,101284.28
2024-01-14T07:04:29.979Z,101283.44
2024-01-14T07:06:32.236Z,101276.50
2024-01-14T07:08:37.748Z,101282.56
2024-01-14T07:10:45.698Z,101283.44
2024-01-14T07:12:50.694Z,101283.44
2024-01-14T07:14:55.712Z,101283.41
2024-01-14T07:17:00.681Z,101284.31
2024-01-14T07:19:06.711Z,101282.56
2024-01-14T07:21:14.487Z,101282.56
2024-01-14T07:23:42.374Z,101281.69
2024-01-14T07:25:47.252Z,101285.16
2024-01-14T07:27:52.331Z,101285.16
2024-01-14T07:29:57.267Z,101280.84
2024-01-14T07:32:05.219Z,101280.00
2024-01-14T07:34:10.203Z,101282.56
2024-01-14T07:36:15.317Z,101282.56
2024-01-14T07:38:20.273Z,101273.94
2024-01-14T07:40:25.147Z,101282.56
2024-01-14T07:42:33.404Z,101283.44
2024-01-14T07:44:36.146Z,101281.72
2024-01-14T07:46:41.457Z,101278.25
2024-01-14T07:48:46.649Z,101279.09
2024-01-14T07:50:51.644Z,101276.53
2024-01-14T07:52:56.561Z,101276.53
2024-01-14T07:55:01.717Z,101281.72
2024-01-14T07:57:07.822Z,101274.78
2024-01-14T07:59:16.521Z,101272.19
2024-01-14T08:01:21.578Z,101273.06
2024-01-14T08:03:26.617Z,101282.56
2024-01-14T08:05:31.748Z,101278.25
2024-01-14T08:07:37.569Z,101279.97
2024-01-14T08:09:43.608Z,101278.25
2024-01-14T08:11:49.212Z,101276.53
2024-01-14T08:13:53.998Z,101279.97
2024-01-14T08:16:03.388Z,101275.66
2024-01-14T08:18:10.020Z,101275.66
2024-01-14T08:20:18.548Z,101275.66
2024-01-14T08:22:23.929Z,101278.25
2024-01-14T08:24:28.978Z,101274.78
2024-01-14T08:26:36.882Z,101278.22
2024-01-14T08:28:41.766Z,101276.50
2024-01-14T08:30:47.107Z,101272.16
2024-01-14T08:32:54.741Z,101266.13
2024-01-14T08:35:00.089Z,101267.84
2024-01-14T08:37:05.095Z,101270.44
2024-01-14T08:39:10.583Z,101271.28
2024-01-14T08:41:16.290Z,101264.34
2024-01-14T08:43:21.325Z,101262.63
2024-01-14T08:45:26.327Z,101260.88
2024-01-14T08:47:31.458Z,101253.09
2024-01-14T08:49:39.194Z,101246.16
2024-01-14T08:51:44.377Z,101245.28
2024-01-14T08:53:49.473Z,101247.88
2024-01-14T08:55:55.325Z,101237.50
2024-01-14T08:58:00.651Z,101240.94
2024-01-14T09:00:06.218Z,101234.00
2024-01-14T09:02:08.772Z,101228.81
2024-01-14T09:04:14.127Z,101230.53
2024-01-14T09:06:22.067Z,101233.13
2024-01-14T09:08:27.120Z,101226.16
2024-01-14T09:10:32.566Z,101222.69
2024-01-14T09:12:35.062Z,101220.09
2024-01-14T09:14:40.628Z,101212.31
2024-01-14T09:16:45.830Z,101216.63
2024-01-14T09:18:50.882Z,101209.69
2024-01-14T09:20:55.820Z,101208.81
2024-01-14T09:23:03.320Z,101208.81
2024-01-14T09:25:06.489Z,101203.63
2024-01-14T09:27:11.762Z,101204.50
2024-01-14T09:29:14.469Z,101203.63
2024-01-14T09:31:19.434Z,101205.38
2024-01-14T09:33:24.700Z,101206.25
2024-01-14T09:35:29.881Z,101207.97
2024-01-14T09:37:34.885Z,101207.09
2024-01-14T09:39:42.876Z,101206.25
2024-01-14T09:41:54.022Z,101204.53
2024-01-14T09:44:01.279Z,101201.94
2024-01-14T09:46:06.388Z,101205.41
2024-01-14T09:48:17.529Z,101203.72
2024-01-14T09:50:23.131Z,101197.63
2024-01-14T09:52:28.880Z,101195.03
2024-01-14T09:54:34.689Z,101202.84
2024-01-14T09:56:41.915Z,101196.75
2024-01-14T09:58:50.644Z,101195.91
2024-01-14T10:00:59.176Z,101200.25
2024-01-14T10:03:05.806Z,101195.94
2024-01-14T10:05:11.937Z,101198.50
2024-01-14T10:07:17.129Z,101205.41
2024-01-14T10:09:19.955Z,101190.72
2024-01-14T10:11:24.814Z,101183.78
2024-01-14T10:13:33.246Z,101191.59
2024-01-14T10:15:45.673Z,101181.22
2024-01-14T10:17:57.267Z,101177.75
2024-01-14T10:20:02.364Z,101181.22
2024-01-14T10:22:15.480Z,101179.47
2024-01-14T10:24:23.097Z,101170.00
2024-01-14T10:26:26.568Z,101168.25
2024-01-14T10:28:38.978Z,101160.44
2024-01-14T10:30:41.609Z,101163.91
2024-01-14T10:33:17.908Z,101161.31
2024-01-14T10:35:14.697Z,101161.31
2024-01-14T10:37:21.329Z,101173.44
2024-01-14T10:39:26.332Z,101163.06
2024-01-14T10:41:31.420Z,101161.31
2024-01-14T10:43:39.203Z,101169.97
2024-01-14T10:45:44.445Z,101167.38
2024-01-14T10:47:52.735Z,101164.75
2024-01-14T10:50:02.263Z,101168.22
2024-01-14T10:52:17.091Z,101159.59
2024-01-14T10:54:31.288Z,101147.50
2024-01-14T10:56:41.137Z,101141.41
2024-01-14T10:58:49.541Z,101132.75
2024-01-14T11:00:53.199Z,101133.59
2024-01-14T11:02:59.187Z,101131.91
2024-01-14T11:05:04.661Z,101123.25
2024-01-14T11:07:08.428Z,101118.00
2024-01-14T11:09:13.428Z,101114.56
2024-01-14T11:11:20.767Z,101107.59
2024-01-14T11:13:29.832Z,101109.31
2024-01-14T11:15:42.892Z,101108.47
2024-01-14T11:17:54.120Z,101105.00
2024-01-14T11:20:02.523Z,101107.66
2024-01-14T11:22:32.612Z,101099.84
2024-01-14T11:24:41.973Z,101099.84
2024-01-14T11:26:45.266Z,101097.25
2024-01-14T11:28:51.421Z,101089.44
2024-01-14T11:30:57.542Z,101073.00
2024-01-14T11:33:33.261Z,101065.19
2024-01-14T11:35:38.859Z,101065.13
2024-01-14T11:37:43.184Z,101055.63
2024-01-14T11:39:48.698Z,101057.34
2024-01-14T11:41:51.193Z,101057.31
2024-01-14T11:44:01.869Z,101059.03
2024-01-14T11:46:07.571Z,101054.72
2024-01-14T11:48:15.962Z,101054.75
2024-01-14T11:50:20.192Z,101053.00
2024-01-14T11:52:26.882Z,101047.81
2024-01-14T11:54:32.059Z,101042.56
2024-01-14T11:56:37.529Z,101038.25
2024-01-14T11:58:42.839Z,101027.91
2024-01-14T12:00:49.946Z,101027.00
2024-01-14T12:03:13.166Z,101020.03
2024-01-14T12:05:20.325Z,101007.06
2024-01-14T12:07:26.428Z,101010.56
2024-01-14T12:09:32.412Z,101002.75
2024-01-14T12:11:35.151Z,100989.75
2024-01-14T12:13:41.200Z,100987.19
2024-01-14T12:15:55.853Z,100992.31
2024-01-14T12:18:08.981Z,100981.88
2024-01-14T12:20:15.733Z,100976.69
2024-01-14T12:22:20.864Z,100975.78
2024-01-14T12:24:26.304Z,100976.63
2024-01-14T12:26:28.666Z,100961.84
2024-01-14T12:28:33.818Z,100960.94
2024-01-14T12:30:39.168Z,100959.25
2024-01-14T12:32:41.626Z,100959.19
2024-01-14T12:34:49.150Z,100955.69
2024-01-14T12:36:55.107Z,100948.69
2024-01-14T12:39:00.582Z,100943.50
2024-01-14T12:41:06.302Z,100941.72
2024-01-14T12:43:12.948Z,100935.63
2024-01-14T12:45:15.845Z,100935.59
2024-01-14T12:47:21.552Z,100926.94
2024-01-14T12:49:27.046Z,100909.66
2024-01-14T12:51:34.897Z,100910.50
2024-01-14T12:53:43.204Z,100903.38
2024-01-14T12:55:46.271Z,100908.38
2024-01-14T12:57:51.225Z,100901.38
2024-01-14T12:59:56.474Z,100903.78
2024-01-14T13:02:01.851Z,100896.72
2024-01-14T13:04:07.719Z,100896.69
2024-01-14T13:06:13.205Z,100894.72
2024-01-14T13:08:21.382Z,100889.53
2024-01-14T13:10:26.654Z,100886.91
2024-01-14T13:12:31.670Z,100871.31
2024-01-14T13:14:36.803Z,100875.66
2024-01-14T13:16:53.469Z,100860.72
2024-01-14T13:18:59.849Z,100866.06
2024-01-14T13:21:04.880Z,100860.72
2024-01-14T13:23:09.889Z,100864.16
2024-01-14T13:25:17.935Z,100864.94
2024-01-14T13:27:20.438Z,100858.22
2024-01-14T13:29:25.515Z,100863.63
2024-01-14T13:31:31.075Z,100855.84
2024-01-14T13:33:36.884Z,100855.84
2024-01-14T13:35:41.944Z,100855.25
2024-01-14T13:37:48.663Z,100848.41
2024-01-14T13:39:54.688Z,100844.03
2024-01-14T13:42:02.681Z,100840.66
2024-01-14T13:44:16.334Z,100843.38
2024-01-14T13:46:24.903Z,100844.22
2024-01-14T13:48:31.410Z,100829.50
2024-01-14T13:50:38.000Z,100832.16
2024-01-14T13:52:42.864Z,100825.22
2024-01-14T13:54:45.843Z,100821.66
2024-01-14T13:56:52.398Z,100819.06
2024-01-14T13:59:00.653Z,100804.38
2024-01-14T14:01:06.599Z,100796.41
2024-01-14T14:03:14.091Z,100797.25
2024-01-14T14:05:19.648Z,100792.03
2024-01-14T14:07:26.754Z,100790.13
2024-01-14T14:09:31.813Z,100787.56
2024-01-14T14:11:34.880Z,100780.38
2024-01-14T14:13:41.092Z,100774.28
2024-01-14T14:15:48.683Z,100774.50
2024-01-14T14:18:00.026Z,100778.06
2024-01-14T14:20:12.080Z,100774.69
2024-01-14T14:22:20.439Z,100786.00
2024-01-14T14:24:25.751Z,100781.00
2024-01-14T14:26:28.136Z,100778.47
2024-01-14T14:28:32.955Z,100788.06
2024-01-14T14:30:40.846Z,100792.28
2024-01-14T14:32:48.867Z,100788.16
2024-01-14T14:34:54.400Z,100781.22
2024-01-14T14:36:59.466Z,100773.38
2024-01-14T14:39:04.582Z,100772.63
2024-01-14T14:41:20.519Z,100769.03
2024-01-14T14:43:33.104Z,100757.81
2024-01-14T14:45:38.306Z,100760.38
2024-01-14T14:47:43.943Z,100758.72
2024-01-14T14:49:52.037Z,100752.63
2024-01-14T14:51:57.334Z,100754.34
2024-01-14T14:54:02.459Z,100760.53
2024-01-14T14:56:08.160Z,100758.84
2024-01-14T14:58:13.219Z,100770.16
2024-01-14T15:00:20.815Z,100756.34
2024-01-14T15:02:26.258Z,100764.13
2024-01-14T15:04:28.727Z,100758.19
2024-01-14T15:06:36.582Z,100756.44
2024-01-14T15:08:41.887Z,100750.47
2024-01-14T15:10:48.948Z,100748.69
2024-01-14T15:12:51.831Z,100743.63
2024-01-14T15:15:00.724Z,100737.75
2024-01-14T15:17:06.602Z,100743.75
2024-01-14T15:19:13.259Z,100734.38
2024-01-14T15:21:21.335Z,100729.22
2024-01-14T15:23:29.691Z,100730.06
2024-01-14T15:25:34.796Z,100731.75
2024-01-14T15:27:39.879Z,100724.88
2024-01-14T15:29:44.714Z,100731.09
2024-01-14T15:31:50.545Z,100730.22
2024-01-14T15:33:55.767Z,100732.78
2024-01-14T15:36:00.631Z,100724.25
2024-01-14T15:38:05.910Z,100721.53
2024-01-14T15:40:18.048Z,100725.03
2024-01-14T15:42:23.189Z,100730.97
2024-01-14T15:44:28.088Z,100733.53
2024-01-14T15:46:33.480Z,100742.09
2024-01-14T15:48:40.831Z,100742.41
2024-01-14T15:50:57.463Z,100732.97
2024-01-14T15:53:08.779Z,100726.91
2024-01-14T15:55:16.624Z,100720.84
2024-01-14T15:57:19.151Z,100717.41
2024-01-14T15:59:24.004Z,100721.75
2024-01-14T16:01:29.615Z,100718.25
2024-01-14T16:03:35.391Z,100705.31
2024-01-14T16:05:40.432Z,100706.22
2024-01-14T16:07:45.923Z,100701.03
2024-01-14T16:09:50.896Z,100709.66
2024-01-14T16:11:55.947Z,100703.66
2024-01-14T16:14:01.124Z,100714.09
2024-01-14T16:16:06.029Z,100713.22
2024-01-14T16:18:14.367Z,100716.75
2024-01-14T16:20:19.539Z,100731.41
2024-01-14T16:22:24.787Z,100717.50
2024-01-14T16:24:27.427Z,100718.31
2024-01-14T16:26:32.347Z,100711.50
2024-01-14T16:28:40.540Z,100708.06
2024-01-14T16:30:50.200Z,100695.97
2024-01-14T16:33:01.909Z,100696.00
2024-01-14T16:35:08.056Z,100686.56
2024-01-14T16:37:13.675Z,100682.25
2024-01-14T16:39:19.060Z,100679.66
2024-01-14T16:41:24.289Z,100676.22
2024-01-14T16:43:29.625Z,100681.41
2024-01-14T16:45:37.449Z,100683.97
2024-01-14T16:47:43.567Z,100686.59
2024-01-14T16:49:48.844Z,100693.44
2024-01-14T16:51:54.385Z,100690.00
2024-01-14T16:54:03.013Z,100684.81
2024-01-14T16:56:10.485Z,100683.03
2024-01-14T16:58:15.849Z,100682.09
2024-01-14T17:00:24.772Z,100671.66
2024-01-14T17:02:33.590Z,100670.81
2024-01-14T17:04:39.424Z,100672.50
2024-01-14T17:06:44.587Z,100669.94
2024-01-14T17:08:50.296Z,100665.56
2024-01-14T17:11:02.729Z,100671.63
2024-01-14T17:13:10.173Z,100675.88
2024-01-14T17:15:15.933Z,100671.50
2024-01-14T17:17:21.706Z,100664.53
2024-01-14T17:19:29.729Z,100659.31
2024-01-14T17:21:36.315Z,100663.66
2024-01-14T17:23:39.937Z,100661.94
2024-01-14T17:25:50.280Z,100655.03
2024-01-14T17:28:01.651Z,100655.09
2024-01-14T17:30:07.286Z,100661.22
2024-01-14T17:32:16.013Z,100658.59
2024-01-14T17:34:22.491Z,100658.63
2024-01-14T17:36:30.197Z,100650.81
2024-01-14T17:38:36.276Z,100650.81
2024-01-14T17:40:41.279Z,100651.66
2024-01-14T17:42:46.908Z,100651.66
2024-01-14T17:44:52.043Z,100652.56
2024-01-14T17:46:57.399Z,100650.75
2024-01-14T17:49:03.642Z,100649.81
2024-01-14T17:51:10.104Z,100649.00
2024-01-14T17:53:18.618Z,100640.34
2024-01-14T17:55:21.255Z,100641.13
2024-01-14T17:57:27.471Z,100644.53
2024-01-14T17:59:32.698Z,100648.06
2024-01-14T18:01:38.933Z,100632.59
2024-01-14T18:03:42.608Z,100627.41
2024-01-14T18:05:48.227Z,100622.25
2024-01-14T18:07:54.015Z,100623.16
2024-01-14T18:10:02.414Z,100622.31
2024-01-14T18:12:09.215Z,100623.25
2024-01-14T18:14:15.209Z,100617.16
2024-01-14T18:16:21.278Z,100617.13
2024-01-14T18:18:24.293Z,100614.53
2024-01-14T18:20:29.789Z,100631.84
2024-01-14T18:22:34.907Z,100642.97
2024-01-14T18:24:40.338Z,100638.69
2024-01-14T18:26:51.609Z,100641.50
2024-01-14T18:28:56.516Z,100635.56
2024-01-14T18:31:02.309Z,100628.66
2024-01-14T18:33:12.158Z,100622.63
2024-01-14T18:35:16.994Z,100619.31
2024-01-14T18:37:21.979Z,100620.28
2024-01-14T18:39:27.021Z,100605.59
2024-01-14T18:41:29.417Z,100609.09
2024-01-14T18:43:36.941Z,100612.53
2024-01-14T18:45:42.100Z,100605.59
2024-01-14T18:47:47.524Z,100596.97
2024-01-14T18:49:52.503Z,100600.50
2024-01-14T18:51:59.904Z,100598.72
2024-01-14T18:54:06.773Z,100597.91
2024-01-14T18:56:14.543Z,100598.81
2024-01-14T18:58:24.629Z,100605.69
2024-01-14T19:00:32.359Z,100600.53
2024-01-14T19:02:37.422Z,100597.91
2024-01-14T19:04:40.228Z,100594.44
2024-01-14T19:06:48.609Z,100606.28
2024-01-14T19:08:53.495Z,100600.06
2024-01-14T19:10:58.732Z,100613.84
2024-01-14T19:13:05.684Z,100594.66
2024-01-14T19:15:10.363Z,100592.00
2024-01-14T19:17:18.480Z,100591.91
2024-01-14T19:19:23.879Z,100605.56
2024-01-14T19:21:28.843Z,100605.56
2024-01-14T19:23:36.580Z,100604.78
2024-01-14T19:25:40.470Z,100612.81
2024-01-14T19:27:45.858Z,100609.56
2024-01-14T19:29:53.477Z,100602.75
2024-01-14T19:31:59.647Z,100617.47
2024-01-14T19:34:07.401Z,100605.38
2024-01-14T19:36:13.187Z,100604.53
2024-01-14T19:38:18.303Z,100604.59
2024-01-14T19:40:23.277Z,100595.97
2024-01-14T19:42:28.219Z,100598.63
2024-01-14T19:44:33.563Z,100596.09
2024-01-14T19:46:38.690Z,100596.09
2024-01-14T19:48:43.732Z,100590.78
2024-01-14T19:50:51.380Z,100587.22
2024-01-14T19:52:53.766Z,100594.13
2024-01-14T19:54:58.762Z,100603.63
2024-01-14T19:57:05.837Z,100592.38
2024-01-14T19:59:10.929Z,100587.22
2024-01-14T20:01:15.884Z,100591.53
2024-01-14T20:03:22.145Z,100596.72
2024-01-14T20:05:27.267Z,100585.41
2024-01-14T20:07:34.969Z,100584.63
2024-01-14T20:09:40.173Z,100578.69
2024-01-14T20:11:50.179Z,100584.06
2024-01-14T20:13:55.140Z,100587.53
2024-01-14T20:16:00.070Z,100575.47
2024-01-14T20:18:05.501Z,100572.06
2024-01-14T20:20:15.074Z,100572.94
2024-01-14T20:22:20.206Z,100559.94
2024-01-14T20:24:31.883Z,100561.59
2024-01-14T20:26:36.955Z,100567.59
2024-01-14T20:28:42.885Z,100570.94
2024-01-14T20:30:48.228Z,100573.59
2024-01-14T20:32:53.538Z,100551.22
2024-01-14T20:34:58.417Z,100554.75
2024-01-14T20:37:03.432Z,100555.78
2024-01-14T20:39:09.907Z,100556.69
2024-01-14T20:41:15.030Z,100545.53
2024-01-14T20:43:19.948Z,100542.97
2024-01-14T20:45:24.808Z,100542.13
2024-01-14T20:47:27.292Z,100534.31
2024-01-14T20:49:32.753Z,100541.31
2024-01-14T20:51:38.361Z,100544.75
2024-01-14T20:53:43.582Z,100545.56
2024-01-14T20:55:48.616Z,100542.88
2024-01-14T20:57:56.210Z,100547.16
2024-01-14T20:59:58.548Z,100545.44
2024-01-14T21:02:03.488Z,100554.06
2024-01-14T21:04:08.708Z,100536.59
2024-01-14T21:06:16.312Z,100536.59
2024-01-14T21:08:22.756Z,100549.56
2024-01-14T21:10:27.703Z,100547.91
2024-01-14T21:12:32.653Z,100545.38
2024-01-14T21:14:40.319Z,100546.16
2024-01-14T21:16:45.428Z,100546.16
2024-01-14T21:18:50.723Z,100538.44
2024-01-14T21:20:56.054Z,100536.72
2024-01-14T21:23:01.610Z,100552.25
2024-01-14T21:25:04.397Z,100545.34
2024-01-14T21:27:09.896Z,100541.84
2024-01-14T21:29:14.897Z,100538.34
2024-01-14T21:31:22.822Z,100539.09
2024-01-14T21:33:26.020Z,100545.16
2024-01-14T21:35:30.994Z,100556.41
2024-01-14T21:37:36.001Z,100554.69
2024-01-14T21:39:41.057Z,100559.00
2024-01-14T21:41:46.051Z,100553.91
2024-01-14T21:43:48.531Z,100551.31
2024-01-14T21:45:53.568Z,100548.72
2024-01-14T21:48:01.188Z,100553.94
2024-01-14T21:50:04.433Z,100559.19
2024-01-14T21:52:10.080Z,100558.38
2024-01-14T21:54:15.079Z,100541.16
2024-01-14T21:56:19.952Z,100545.47
2024-01-14T21:58:24.858Z,100555.03
2024-01-14T22:00:29.757Z,100549.88
2024-01-14T22:02:34.620Z,100557.66
2024-01-14T22:04:43.157Z,100550.78
2024-01-14T22:06:48.172Z,100543.84
2024-01-14T22:08:50.822Z,100545.56
2024-01-14T22:10:55.671Z,100543.91
2024-01-14T22:13:00.650Z,100539.53
2024-01-14T22:15:05.519Z,100545.53
2024-01-14T22:17:10.414Z,100544.66
2024-01-14T22:19:15.869Z,100536.03
2024-01-14T22:21:23.365Z,100535.16
2024-01-14T22:23:28.565Z,100524.81
2024-01-14T22:25:33.436Z,100524.88
2024-01-14T22:27:39.174Z,100525.72
2024-01-14T22:29:45.087Z,100526.53
2024-01-14T22:31:47.318Z,100529.94
2024-01-14T22:33:52.694Z,100535.09
2024-01-14T22:35:58.347Z,100539.41
2024-01-14T22:38:06.304Z,100533.38
2024-01-14T22:40:13.812Z,100526.38
2024-01-14T22:42:18.654Z,100525.50
2024-01-14T22:44:25.912Z,100526.38
2024-01-14T22:46:33.429Z,100529.81
2024-01-14T22:48:38.840Z,100522.84
2024-01-14T22:50:44.065Z,100519.38
2024-01-14T22:52:48.960Z,100516.84
2024-01-14T22:54:56.451Z,100519.44
2024-01-14T22:57:01.335Z,100517.75
2024-01-14T22:59:04.225Z,100522.06
2024-01-14T23:01:08.963Z,100527.22
2024-01-14T23:03:16.788Z,100523.81
2024-01-14T23:05:23.766Z,100522.13
2024-01-14T23:07:28.700Z,100517.06
2024-01-14T23:09:34.254Z,100516.28
2024-01-14T23:11:41.655Z,100524.09
2024-01-14T23:13:46.772Z,100521.53
2024-01-14T23:15:52.122Z,100516.25
2024-01-14T23:17:57.222Z,100516.31
2024-01-14T23:20:02.136Z,100507.53
2024-01-14T23:22:07.366Z,100507.53
2024-01-14T23:24:18.129Z,100502.38
2024-01-14T23:26:23.199Z,100500.69
2024-01-14T23:28:32.976Z,100498.22
2024-01-14T23:30:38.669Z,100505.88
2024-01-14T23:32:43.754Z,100498.06
2024-01-14T23:34:48.934Z,100494.56
2024-01-14T23:36:51.693Z,100491.97
2024-01-14T23:38:56.547Z,100497.13
2024-01-14T23:41:01.516Z,100490.13
2024-01-14T23:43:03.906Z,100487.69
2024-01-14T23:45:14.577Z,100493.72
2024-01-14T23:47:20.892Z,100484.25
2024-01-14T23:49:26.212Z,100482.50
2024-01-14T23:51:31.170Z,100485.09
2024-01-14T23:53:36.509Z,100488.38
2024-01-14T23:55:41.660Z,100478.03
2024-01-14T23:57:44.296Z,100494.38
2024-01-14T23:59:49.284Z,100492.63
